sensor_id;sensor_type;location;lat;lon;timestamp;pressure;altitude;pressure_sealevel;temperature;humidity
692;BME280;70475;50.084;8.576;2023-07-13T00:01:40;100590.66;;;18.57;57.15
692;BME280;70475;50.084;8.576;2023-07-13T00:04:09;100591.88;;;18.61;56.81
692;BME280;70475;50.084;8.576;2023-07-13T00:06:37;100583.25;;;18.76;56.64
692;BME280;70475;50.084;8.576;2023-07-13T00:09:05;100592.91;;;18.60;57.18
692;BME280;70475;50.084;8.576;2023-07-13T00:11:32;100588.81;;;18.58;56.99
692;BME280;70475;50.084;8.576;2023-07-13T00:14:00;100591.63;;;18.63;57.12
692;BME280;70475;50.084;8.576;2023-07-13T00:16:28;100594.09;;;18.64;57.22
692;BME280;70475;50.084;8.576;2023-07-13T00:18:57;100604.88;;;18.64;57.23
692;BME280;70475;50.084;8.576;2023-07-13T00:21:26;100601.09;;;18.65;57.29
692;BME280;70475;50.084;8.576;2023-07-13T00:23:54;100604.28;;;18.62;57.52
692;BME280;70475;50.084;8.576;2023-07-13T00:26:22;100604.50;;;18.61;57.58
692;BME280;70475;50.084;8.576;2023-07-13T00:28:49;100603.94;;;18.59;57.63
692;BME280;70475;50.084;8.576;2023-07-13T00:31:18;100609.06;;;18.83;57.06
692;BME280;70475;50.084;8.576;2023-07-13T00:33:45;100606.72;;;18.75;56.55
692;BME280;70475;50.084;8.576;2023-07-13T00:36:15;100599.22;;;18.77;57.08
692;BME280;70475;50.084;8.576;2023-07-13T00:38:43;100600.16;;;18.71;56.87
692;BME280;70475;50.084;8.576;2023-07-13T00:41:11;100600.75;;;18.73;56.92
692;BME280;70475;50.084;8.576;2023-07-13T00:43:38;100614.38;;;18.67;55.95
692;BME280;70475;50.084;8.576;2023-07-13T00:46:21;100617.19;;;18.72;56.21
692;BME280;70475;50.084;8.576;2023-07-13T00:48:50;100623.38;;;18.72;56.57
692;BME280;70475;50.084;8.576;2023-07-13T00:51:24;100627.25;;;18.76;56.93
692;BME280;70475;50.084;8.576;2023-07-13T00:53:54;100610.97;;;18.71;56.82
692;BME280;70475;50.084;8.576;2023-07-13T00:56:24;100617.50;;;18.75;56.47
692;BME280;70475;50.084;8.576;2023-07-13T00:58:52;100612.72;;;18.77;55.68
692;BME280;70475;50.084;8.576;2023-07-13T01:01:20;100623.50;;;18.77;55.68
692;BME280;70475;50.084;8.576;2023-07-13T01:03:48;100625.25;;;18.83;56.06
692;BME280;70475;50.084;8.576;2023-07-13T01:06:16;100612.91;;;18.87;55.79
692;BME280;70475;50.084;8.576;2023-07-13T01:08:46;100600.38;;;18.81;55.35
692;BME280;70475;50.084;8.576;2023-07-13T01:11:18;100609.53;;;18.80;54.86
692;BME280;70475;50.084;8.576;2023-07-13T01:13:47;100609.75;;;18.90;54.55
692;BME280;70475;50.084;8.576;2023-07-13T01:16:31;100610.19;;;18.99;54.30
692;BME280;70475;50.084;8.576;2023-07-13T01:18:59;100617.13;;;18.95;54.29
692;BME280;70475;50.084;8.576;2023-07-13T01:21:29;100606.69;;;18.98;54.21
692;BME280;70475;50.084;8.576;2023-07-13T01:23:59;100600.44;;;18.98;53.80
692;BME280;70475;50.084;8.576;2023-07-13T01:26:28;100607.84;;;19.02;54.00
692;BME280;70475;50.084;8.576;2023-07-13T01:28:56;100602.09;;;18.99;54.01
692;BME280;70475;50.084;8.576;2023-07-13T01:31:23;100594.69;;;18.94;54.26
692;BME280;70475;50.084;8.576;2023-07-13T01:33:51;100594.91;;;19.04;53.86
692;BME280;70475;50.084;8.576;2023-07-13T01:36:19;100605.78;;;18.81;55.69
692;BME280;70475;50.084;8.576;2023-07-13T01:38:48;100609.06;;;18.83;55.90
692;BME280;70475;50.084;8.576;2023-07-13T01:41:16;100610.69;;;18.84;55.80
692;BME280;70475;50.084;8.576;2023-07-13T01:43:44;100619.66;;;18.73;56.80
692;BME280;70475;50.084;8.576;2023-07-13T01:46:11;100610.13;;;18.71;57.42
692;BME280;70475;50.084;8.576;2023-07-13T01:48:42;100617.78;;;18.62;57.13
692;BME280;70475;50.084;8.576;2023-07-13T01:51:09;100618.03;;;18.38;58.66
692;BME280;70475;50.084;8.576;2023-07-13T01:53:38;100623.75;;;18.41;57.86
692;BME280;70475;50.084;8.576;2023-07-13T01:56:08;100615.88;;;18.28;58.47
692;BME280;70475;50.084;8.576;2023-07-13T01:58:36;100624.66;;;18.23;58.34
692;BME280;70475;50.084;8.576;2023-07-13T02:01:04;100626.19;;;18.19;58.59
692;BME280;70475;50.084;8.576;2023-07-13T02:03:31;100623.38;;;18.26;58.62
692;BME280;70475;50.084;8.576;2023-07-13T02:05:59;100618.22;;;18.13;58.88
692;BME280;70475;50.084;8.576;2023-07-13T02:08:27;100616.56;;;18.12;58.90
692;BME280;70475;50.084;8.576;2023-07-13T02:10:54;100627.13;;;18.13;59.08
692;BME280;70475;50.084;8.576;2023-07-13T02:13:23;100630.59;;;17.91;60.06
692;BME280;70475;50.084;8.576;2023-07-13T02:15:51;100628.88;;;17.96;59.87
692;BME280;70475;50.084;8.576;2023-07-13T02:18:19;100624.53;;;18.07;59.39
692;BME280;70475;50.084;8.576;2023-07-13T02:20:46;100625.59;;;17.94;60.06
692;BME280;70475;50.084;8.576;2023-07-13T02:23:14;100623.34;;;17.80;60.41
692;BME280;70475;50.084;8.576;2023-07-13T02:25:41;100625.44;;;17.78;60.48
692;BME280;70475;50.084;8.576;2023-07-13T02:28:09;100629.38;;;17.64;61.31
692;BME280;70475;50.084;8.576;2023-07-13T02:30:38;100632.41;;;17.56;61.41
692;BME280;70475;50.084;8.576;2023-07-13T02:33:06;100638.25;;;17.53;62.11
692;BME280;70475;50.084;8.576;2023-07-13T02:35:33;100640.22;;;17.28;62.71
692;BME280;70475;50.084;8.576;2023-07-13T02:38:01;100633.19;;;17.27;62.45
692;BME280;70475;50.084;8.576;2023-07-13T02:40:28;100626.94;;;17.15;63.38
692;BME280;70475;50.084;8.576;2023-07-13T02:42:59;100630.91;;;17.12;63.16
692;BME280;70475;50.084;8.576;2023-07-13T02:45:27;100632.75;;;17.30;62.32
692;BME280;70475;50.084;8.576;2023-07-13T02:47:56;100631.22;;;17.34;62.07
692;BME280;70475;50.084;8.576;2023-07-13T02:50:24;100646.28;;;17.23;61.84
692;BME280;70475;50.084;8.576;2023-07-13T02:52:51;100636.16;;;17.37;61.60
692;BME280;70475;50.084;8.576;2023-07-13T02:55:19;100644.91;;;17.32;62.07
692;BME280;70475;50.084;8.576;2023-07-13T02:57:47;100638.38;;;17.10;62.56
692;BME280;70475;50.084;8.576;2023-07-13T03:00:16;100648.78;;;16.89;63.68
692;BME280;70475;50.084;8.576;2023-07-13T03:02:43;100651.47;;;16.71;64.49
692;BME280;70475;50.084;8.576;2023-07-13T03:05:13;100652.75;;;16.68;64.50
692;BME280;70475;50.084;8.576;2023-07-13T03:07:41;100656.19;;;16.75;63.99
692;BME280;70475;50.084;8.576;2023-07-13T03:10:10;100655.72;;;16.60;64.38
692;BME280;70475;50.084;8.576;2023-07-13T03:12:38;100654.38;;;16.69;64.45
692;BME280;70475;50.084;8.576;2023-07-13T03:15:06;100659.22;;;16.61;64.28
692;BME280;70475;50.084;8.576;2023-07-13T03:17:33;100663.38;;;16.57;64.53
692;BME280;70475;50.084;8.576;2023-07-13T03:20:01;100671.63;;;16.62;64.24
692;BME280;70475;50.084;8.576;2023-07-13T03:22:30;100666.97;;;16.51;64.40
692;BME280;70475;50.084;8.576;2023-07-13T03:24:58;100663.72;;;16.67;64.02
692;BME280;70475;50.084;8.576;2023-07-13T03:27:25;100668.13;;;16.79;63.37
692;BME280;70475;50.084;8.576;2023-07-13T03:29:53;100679.28;;;16.58;64.21
692;BME280;70475;50.084;8.576;2023-07-13T03:32:20;100678.94;;;16.55;64.31
692;BME280;70475;50.084;8.576;2023-07-13T03:34:48;100690.13;;;16.52;64.20
692;BME280;70475;50.084;8.576;2023-07-13T03:37:16;100687.31;;;16.65;64.08
692;BME280;70475;50.084;8.576;2023-07-13T03:39:44;100684.97;;;16.50;64.37
692;BME280;70475;50.084;8.576;2023-07-13T03:42:12;100686.31;;;16.34;65.17
692;BME280;70475;50.084;8.576;2023-07-13T03:44:40;100691.47;;;16.36;65.44
692;BME280;70475;50.084;8.576;2023-07-13T03:47:08;100701.03;;;16.32;65.46
692;BME280;70475;50.084;8.576;2023-07-13T03:49:36;100697.47;;;16.38;64.69
692;BME280;70475;50.084;8.576;2023-07-13T03:52:04;100699.03;;;16.21;65.41
692;BME280;70475;50.084;8.576;2023-07-13T03:54:32;100700.41;;;16.05;66.39
692;BME280;70475;50.084;8.576;2023-07-13T03:57:01;100696.22;;;16.09;66.07
692;BME280;70475;50.084;8.576;2023-07-13T03:59:28;100703.84;;;16.12;66.26
692;BME280;70475;50.084;8.576;2023-07-13T04:01:56;100701.72;;;16.21;65.43
692;BME280;70475;50.084;8.576;2023-07-13T04:04:23;100702.13;;;16.24;65.07
692;BME280;70475;50.084;8.576;2023-07-13T04:06:51;100696.38;;;16.46;64.68
692;BME280;70475;50.084;8.576;2023-07-13T04:09:19;100699.44;;;16.49;64.85
692;BME280;70475;50.084;8.576;2023-07-13T04:11:47;100705.25;;;16.46;65.00
692;BME280;70475;50.084;8.576;2023-07-13T04:14:16;100702.00;;;16.44;65.14
692;BME280;70475;50.084;8.576;2023-07-13T04:16:44;100700.97;;;16.38;65.32
692;BME280;70475;50.084;8.576;2023-07-13T04:19:12;100699.16;;;16.32;66.04
692;BME280;70475;50.084;8.576;2023-07-13T04:21:40;100705.13;;;16.34;66.08
692;BME280;70475;50.084;8.576;2023-07-13T04:24:08;100708.66;;;16.35;66.35
692;BME280;70475;50.084;8.576;2023-07-13T04:26:35;100704.53;;;16.32;66.35
692;BME280;70475;50.084;8.576;2023-07-13T04:29:05;100711.47;;;16.47;65.69
692;BME280;70475;50.084;8.576;2023-07-13T04:31:34;100712.53;;;16.46;66.28
692;BME280;70475;50.084;8.576;2023-07-13T04:34:02;100712.63;;;16.57;65.76
692;BME280;70475;50.084;8.576;2023-07-13T04:36:29;100705.25;;;16.71;65.40
692;BME280;70475;50.084;8.576;2023-07-13T04:38:57;100706.75;;;16.67;66.67
692;BME280;70475;50.084;8.576;2023-07-13T04:41:24;100708.66;;;16.60;66.84
692;BME280;70475;50.084;8.576;2023-07-13T04:43:52;100704.94;;;16.61;66.93
692;BME280;70475;50.084;8.576;2023-07-13T04:46:22;100702.69;;;16.58;67.52
692;BME280;70475;50.084;8.576;2023-07-13T04:48:51;100702.84;;;16.63;67.29
692;BME280;70475;50.084;8.576;2023-07-13T04:51:20;100710.78;;;16.76;66.56
692;BME280;70475;50.084;8.576;2023-07-13T04:53:47;100713.72;;;16.92;65.37
692;BME280;70475;50.084;8.576;2023-07-13T04:56:18;100710.34;;;16.97;65.54
692;BME280;70475;50.084;8.576;2023-07-13T04:58:46;100707.00;;;17.01;65.41
692;BME280;70475;50.084;8.576;2023-07-13T05:01:13;100706.84;;;17.14;64.85
692;BME280;70475;50.084;8.576;2023-07-13T05:03:41;100710.38;;;17.15;64.89
692;BME280;70475;50.084;8.576;2023-07-13T05:06:10;100709.47;;;17.21;64.88
692;BME280;70475;50.084;8.576;2023-07-13T05:08:38;100713.78;;;17.22;64.77
692;BME280;70475;50.084;8.576;2023-07-13T05:11:06;100719.13;;;17.28;64.31
692;BME280;70475;50.084;8.576;2023-07-13T05:13:34;100716.19;;;17.30;64.07
692;BME280;70475;50.084;8.576;2023-07-13T05:16:04;100721.47;;;17.36;63.86
692;BME280;70475;50.084;8.576;2023-07-13T05:18:34;100723.09;;;17.44;63.25
692;BME280;70475;50.084;8.576;2023-07-13T05:21:04;100717.63;;;17.50;63.77
692;BME280;70475;50.084;8.576;2023-07-13T05:23:34;100726.06;;;17.54;63.88
692;BME280;70475;50.084;8.576;2023-07-13T05:26:03;100724.25;;;17.66;63.17
692;BME280;70475;50.084;8.576;2023-07-13T05:28:35;100724.47;;;17.64;63.18
692;BME280;70475;50.084;8.576;2023-07-13T05:31:03;100722.50;;;17.71;62.72
692;BME280;70475;50.084;8.576;2023-07-13T05:33:31;100722.88;;;17.75;63.16
692;BME280;70475;50.084;8.576;2023-07-13T05:35:58;100724.28;;;17.77;63.21
692;BME280;70475;50.084;8.576;2023-07-13T05:38:27;100724.81;;;17.86;62.60
692;BME280;70475;50.084;8.576;2023-07-13T05:40:57;100732.69;;;17.99;61.99
692;BME280;70475;50.084;8.576;2023-07-13T05:43:25;100732.25;;;18.13;61.36
692;BME280;70475;50.084;8.576;2023-07-13T05:45:53;100735.53;;;18.45;61.11
692;BME280;70475;50.084;8.576;2023-07-13T05:48:21;100745.28;;;18.69;60.12
692;BME280;70475;50.084;8.576;2023-07-13T05:50:49;100741.28;;;18.95;59.26
692;BME280;70475;50.084;8.576;2023-07-13T05:53:17;100739.63;;;19.05;58.47
692;BME280;70475;50.084;8.576;2023-07-13T05:55:46;100747.38;;;19.02;57.76
692;BME280;70475;50.084;8.576;2023-07-13T05:58:17;100740.47;;;18.94;57.72
692;BME280;70475;50.084;8.576;2023-07-13T06:00:46;100748.53;;;19.06;57.49
692;BME280;70475;50.084;8.576;2023-07-13T06:03:14;100751.09;;;19.24;56.63
692;BME280;70475;50.084;8.576;2023-07-13T06:05:42;100747.00;;;19.21;56.87
692;BME280;70475;50.084;8.576;2023-07-13T06:08:10;100752.66;;;19.31;56.32
692;BME280;70475;50.084;8.576;2023-07-13T06:10:37;100748.66;;;19.34;56.35
692;BME280;70475;50.084;8.576;2023-07-13T06:13:05;100752.25;;;19.51;55.69
692;BME280;70475;50.084;8.576;2023-07-13T06:15:34;100756.22;;;19.60;56.05
692;BME280;70475;50.084;8.576;2023-07-13T06:18:01;100745.38;;;19.71;55.62
692;BME280;70475;50.084;8.576;2023-07-13T06:20:30;100738.28;;;19.82;54.95
692;BME280;70475;50.084;8.576;2023-07-13T06:22:57;100736.84;;;19.91;52.73
692;BME280;70475;50.084;8.576;2023-07-13T06:25:26;100743.94;;;20.08;52.55
692;BME280;70475;50.084;8.576;2023-07-13T06:27:53;100739.88;;;20.22;51.64
692;BME280;70475;50.084;8.576;2023-07-13T06:30:21;100744.53;;;20.27;50.65
692;BME280;70475;50.084;8.576;2023-07-13T06:32:50;100740.88;;;20.33;50.17
692;BME280;70475;50.084;8.576;2023-07-13T06:35:18;100739.25;;;20.49;51.21
692;BME280;70475;50.084;8.576;2023-07-13T06:37:46;100738.31;;;20.60;49.55
692;BME280;70475;50.084;8.576;2023-07-13T06:40:14;100746.59;;;20.70;49.83
692;BME280;70475;50.084;8.576;2023-07-13T06:42:41;100747.44;;;20.70;49.02
692;BME280;70475;50.084;8.576;2023-07-13T06:45:09;100750.28;;;20.64;48.91
692;BME280;70475;50.084;8.576;2023-07-13T06:47:37;100756.44;;;20.76;48.83
692;BME280;70475;50.084;8.576;2023-07-13T06:50:06;100758.91;;;20.77;50.26
692;BME280;70475;50.084;8.576;2023-07-13T06:52:34;100761.34;;;20.79;48.67
692;BME280;70475;50.084;8.576;2023-07-13T06:55:02;100762.50;;;20.83;49.12
692;BME280;70475;50.084;8.576;2023-07-13T06:57:30;100764.47;;;20.87;48.35
692;BME280;70475;50.084;8.576;2023-07-13T06:59:57;100765.97;;;20.95;47.98
692;BME280;70475;50.084;8.576;2023-07-13T07:02:25;100761.59;;;20.94;48.81
692;BME280;70475;50.084;8.576;2023-07-13T07:04:53;100761.22;;;21.02;48.34
692;BME280;70475;50.084;8.576;2023-07-13T07:07:24;100765.06;;;21.06;48.64
692;BME280;70475;50.084;8.576;2023-07-13T07:09:52;100754.84;;;21.13;48.17
692;BME280;70475;50.084;8.576;2023-07-13T07:12:19;100760.91;;;21.20;47.87
692;BME280;70475;50.084;8.576;2023-07-13T07:14:47;100757.31;;;21.36;47.76
692;BME280;70475;50.084;8.576;2023-07-13T07:17:14;100767.13;;;21.37;46.46
692;BME280;70475;50.084;8.576;2023-07-13T07:19:42;100774.13;;;21.54;46.81
692;BME280;70475;50.084;8.576;2023-07-13T07:22:10;100767.00;;;21.48;47.31
692;BME280;70475;50.084;8.576;2023-07-13T07:24:39;100770.47;;;21.44;47.01
692;BME280;70475;50.084;8.576;2023-07-13T07:27:07;100774.88;;;21.50;47.26
692;BME280;70475;50.084;8.576;2023-07-13T07:29:37;100765.16;;;21.54;45.64
692;BME280;70475;50.084;8.576;2023-07-13T07:32:12;100772.78;;;21.57;46.20
692;BME280;70475;50.084;8.576;2023-07-13T07:34:59;100770.91;;;21.57;46.13
692;BME280;70475;50.084;8.576;2023-07-13T07:37:27;100768.75;;;21.59;46.24
692;BME280;70475;50.084;8.576;2023-07-13T07:39:58;100776.44;;;21.67;46.83
692;BME280;70475;50.084;8.576;2023-07-13T07:42:29;100775.06;;;21.86;46.28
692;BME280;70475;50.084;8.576;2023-07-13T07:44:56;100773.88;;;21.99;46.49
692;BME280;70475;50.084;8.576;2023-07-13T07:47:24;100787.22;;;22.05;46.58
692;BME280;70475;50.084;8.576;2023-07-13T07:49:52;100775.94;;;21.92;46.66
692;BME280;70475;50.084;8.576;2023-07-13T07:52:20;100775.00;;;22.03;45.98
692;BME280;70475;50.084;8.576;2023-07-13T07:54:47;100776.09;;;22.07;45.50
692;BME280;70475;50.084;8.576;2023-07-13T07:57:19;100769.66;;;22.13;44.12
692;BME280;70475;50.084;8.576;2023-07-13T07:59:49;100779.16;;;21.89;44.75
692;BME280;70475;50.084;8.576;2023-07-13T08:02:20;100769.75;;;21.96;44.58
692;BME280;70475;50.084;8.576;2023-07-13T08:04:51;100778.03;;;21.85;44.76
692;BME280;70475;50.084;8.576;2023-07-13T08:07:21;100774.91;;;21.98;45.55
692;BME280;70475;50.084;8.576;2023-07-13T08:09:51;100783.03;;;21.93;45.65
692;BME280;70475;50.084;8.576;2023-07-13T08:12:21;100771.75;;;22.06;44.92
692;BME280;70475;50.084;8.576;2023-07-13T08:14:51;100781.59;;;22.12;45.67
692;BME280;70475;50.084;8.576;2023-07-13T08:17:19;100785.31;;;22.06;45.39
692;BME280;70475;50.084;8.576;2023-07-13T08:19:48;100777.78;;;22.13;44.82
692;BME280;70475;50.084;8.576;2023-07-13T08:22:15;100770.25;;;22.20;45.00
692;BME280;70475;50.084;8.576;2023-07-13T08:24:43;100769.25;;;22.26;44.47
692;BME280;70475;50.084;8.576;2023-07-13T08:27:11;100767.75;;;22.40;43.78
692;BME280;70475;50.084;8.576;2023-07-13T08:29:40;100769.56;;;22.56;44.22
692;BME280;70475;50.084;8.576;2023-07-13T08:32:08;100773.63;;;22.54;44.30
692;BME280;70475;50.084;8.576;2023-07-13T08:34:37;100772.66;;;22.43;43.23
692;BME280;70475;50.084;8.576;2023-07-13T08:37:05;100778.63;;;22.45;42.51
692;BME280;70475;50.084;8.576;2023-07-13T08:39:33;100780.94;;;22.53;42.43
692;BME280;70475;50.084;8.576;2023-07-13T08:42:05;100771.69;;;22.54;43.97
692;BME280;70475;50.084;8.576;2023-07-13T08:44:44;100769.50;;;22.51;41.47
692;BME280;70475;50.084;8.576;2023-07-13T08:47:16;100771.22;;;22.62;40.94
692;BME280;70475;50.084;8.576;2023-07-13T08:49:44;100766.09;;;22.66;39.68
692;BME280;70475;50.084;8.576;2023-07-13T08:52:16;100778.09;;;22.70;39.61
692;BME280;70475;50.084;8.576;2023-07-13T08:54:50;100764.75;;;22.68;38.87
692;BME280;70475;50.084;8.576;2023-07-13T08:57:22;100771.38;;;22.82;38.93
692;BME280;70475;50.084;8.576;2023-07-13T08:59:54;100769.75;;;22.86;39.52
692;BME280;70475;50.084;8.576;2023-07-13T09:02:28;100769.25;;;22.89;39.80
692;BME280;70475;50.084;8.576;2023-07-13T09:05:09;100767.09;;;22.91;38.21
692;BME280;70475;50.084;8.576;2023-07-13T09:07:53;100767.09;;;22.91;38.17
692;BME280;70475;50.084;8.576;2023-07-13T09:10:26;100771.81;;;23.06;38.16
692;BME280;70475;50.084;8.576;2023-07-13T09:13:04;100769.63;;;23.03;37.92
692;BME280;70475;50.084;8.576;2023-07-13T09:15:38;100772.53;;;22.91;37.85
692;BME280;70475;50.084;8.576;2023-07-13T09:18:11;100772.31;;;22.98;38.36
692;BME280;70475;50.084;8.576;2023-07-13T09:20:46;100774.13;;;22.87;39.50
692;BME280;70475;50.084;8.576;2023-07-13T09:23:19;100772.44;;;23.18;39.72
692;BME280;70475;50.084;8.576;2023-07-13T09:25:48;100762.13;;;23.20;38.91
692;BME280;70475;50.084;8.576;2023-07-13T09:28:24;100765.53;;;23.47;38.87
692;BME280;70475;50.084;8.576;2023-07-13T09:30:58;100756.38;;;23.68;37.58
692;BME280;70475;50.084;8.576;2023-07-13T09:33:30;100757.00;;;23.85;37.56
692;BME280;70475;50.084;8.576;2023-07-13T09:35:58;100756.78;;;24.01;36.82
692;BME280;70475;50.084;8.576;2023-07-13T09:38:28;100765.97;;;23.90;36.83
692;BME280;70475;50.084;8.576;2023-07-13T09:41:01;100774.50;;;24.04;37.62
692;BME280;70475;50.084;8.576;2023-07-13T09:43:32;100760.63;;;24.05;36.82
692;BME280;70475;50.084;8.576;2023-07-13T09:46:02;100753.94;;;23.76;36.68
692;BME280;70475;50.084;8.576;2023-07-13T09:48:36;100761.34;;;23.91;37.39
692;BME280;70475;50.084;8.576;2023-07-13T09:51:13;100769.22;;;23.92;37.65
692;BME280;70475;50.084;8.576;2023-07-13T09:53:42;100757.22;;;23.78;36.60
692;BME280;70475;50.084;8.576;2023-07-13T09:56:19;100763.22;;;23.75;37.12
692;BME280;70475;50.084;8.576;2023-07-13T09:58:48;100765.97;;;23.80;37.30
692;BME280;70475;50.084;8.576;2023-07-13T10:01:31;100768.13;;;23.78;36.39
692;BME280;70475;50.084;8.576;2023-07-13T10:04:01;100768.72;;;23.90;36.82
692;BME280;70475;50.084;8.576;2023-07-13T10:06:29;100764.13;;;24.06;37.32
692;BME280;70475;50.084;8.576;2023-07-13T10:08:57;100766.06;;;24.20;36.33
692;BME280;70475;50.084;8.576;2023-07-13T10:11:27;100768.97;;;23.94;36.68
692;BME280;70475;50.084;8.576;2023-07-13T10:13:57;100758.69;;;24.06;36.19
692;BME280;70475;50.084;8.576;2023-07-13T10:16:28;100761.97;;;24.08;37.11
692;BME280;70475;50.084;8.576;2023-07-13T10:19:05;100770.34;;;23.91;37.43
692;BME280;70475;50.084;8.576;2023-07-13T10:21:43;100766.06;;;24.05;36.51
692;BME280;70475;50.084;8.576;2023-07-13T10:24:19;100757.09;;;24.25;35.89
692;BME280;70475;50.084;8.576;2023-07-13T10:26:52;100753.03;;;24.53;37.35
692;BME280;70475;50.084;8.576;2023-07-13T10:29:23;100762.81;;;24.39;36.59
692;BME280;70475;50.084;8.576;2023-07-13T10:31:53;100763.38;;;24.51;36.43
692;BME280;70475;50.084;8.576;2023-07-13T10:34:22;100754.13;;;24.67;35.74
692;BME280;70475;50.084;8.576;2023-07-13T10:36:51;100751.94;;;24.74;37.05
692;BME280;70475;50.084;8.576;2023-07-13T10:39:22;100750.03;;;24.84;36.17
692;BME280;70475;50.084;8.576;2023-07-13T10:41:54;100764.22;;;24.66;35.98
692;BME280;70475;50.084;8.576;2023-07-13T10:44:26;100760.94;;;24.84;36.34
692;BME280;70475;50.084;8.576;2023-07-13T10:46:57;100756.78;;;25.17;35.60
692;BME280;70475;50.084;8.576;2023-07-13T10:49:29;100753.28;;;24.96;35.41
692;BME280;70475;50.084;8.576;2023-07-13T10:51:58;100752.38;;;25.36;34.99
692;BME280;70475;50.084;8.576;2023-07-13T10:54:28;100752.94;;;25.33;34.09
692;BME280;70475;50.084;8.576;2023-07-13T10:57:14;100751.81;;;25.39;33.57
692;BME280;70475;50.084;8.576;2023-07-13T10:59:46;100745.75;;;25.57;33.22
692;BME280;70475;50.084;8.576;2023-07-13T11:02:23;100748.19;;;25.63;32.89
692;BME280;70475;50.084;8.576;2023-07-13T11:04:55;100750.59;;;25.70;32.79
692;BME280;70475;50.084;8.576;2023-07-13T11:07:25;100754.44;;;25.64;32.01
692;BME280;70475;50.084;8.576;2023-07-13T11:09:55;100749.69;;;25.11;33.19
692;BME280;70475;50.084;8.576;2023-07-13T11:12:29;100737.69;;;25.32;32.97
692;BME280;70475;50.084;8.576;2023-07-13T11:15:27;100742.75;;;25.53;32.25
692;BME280;70475;50.084;8.576;2023-07-13T11:17:55;100743.75;;;25.77;32.18
692;BME280;70475;50.084;8.576;2023-07-13T11:20:36;100743.53;;;25.64;32.61
692;BME280;70475;50.084;8.576;2023-07-13T11:23:17;100738.50;;;25.86;32.50
692;BME280;70475;50.084;8.576;2023-07-13T11:25:47;100728.22;;;25.68;31.95
692;BME280;70475;50.084;8.576;2023-07-13T11:28:22;100734.66;;;25.38;32.28
692;BME280;70475;50.084;8.576;2023-07-13T11:31:01;100741.34;;;25.66;30.82
692;BME280;70475;50.084;8.576;2023-07-13T11:33:48;100737.84;;;25.55;30.94
692;BME280;70475;50.084;8.576;2023-07-13T11:36:20;100732.25;;;25.17;31.35
692;BME280;70475;50.084;8.576;2023-07-13T11:38:56;100736.03;;;25.21;32.32
692;BME280;70475;50.084;8.576;2023-07-13T11:41:29;100746.09;;;25.45;33.06
692;BME280;70475;50.084;8.576;2023-07-13T11:44:11;100745.31;;;25.35;32.74
692;BME280;70475;50.084;8.576;2023-07-13T11:46:44;100730.66;;;25.74;32.24
692;BME280;70475;50.084;8.576;2023-07-13T11:49:15;100719.31;;;25.96;33.14
692;BME280;70475;50.084;8.576;2023-07-13T11:51:45;100727.66;;;25.76;32.13
692;BME280;70475;50.084;8.576;2023-07-13T11:54:24;100736.38;;;25.78;32.05
692;BME280;70475;50.084;8.576;2023-07-13T11:56:55;100740.59;;;25.50;31.46
692;BME280;70475;50.084;8.576;2023-07-13T11:59:23;100737.94;;;25.30;32.71
692;BME280;70475;50.084;8.576;2023-07-13T12:01:53;100733.44;;;25.64;32.88
692;BME280;70475;50.084;8.576;2023-07-13T12:04:24;100738.22;;;25.87;31.68
692;BME280;70475;50.084;8.576;2023-07-13T12:06:56;100725.75;;;25.76;32.14
692;BME280;70475;50.084;8.576;2023-07-13T12:09:27;100737.03;;;25.60;32.26
692;BME280;70475;50.084;8.576;2023-07-13T12:11:57;100737.03;;;25.60;32.50
692;BME280;70475;50.084;8.576;2023-07-13T12:14:26;100732.00;;;25.77;33.51
692;BME280;70475;50.084;8.576;2023-07-13T12:16:55;100730.25;;;25.96;30.65
692;BME280;70475;50.084;8.576;2023-07-13T12:19:25;100740.09;;;25.97;31.51
692;BME280;70475;50.084;8.576;2023-07-13T12:21:57;100730.72;;;26.47;31.63
692;BME280;70475;50.084;8.576;2023-07-13T12:24:26;100735.50;;;26.31;30.55
692;BME280;70475;50.084;8.576;2023-07-13T12:26:58;100738.78;;;25.84;31.79
692;BME280;70475;50.084;8.576;2023-07-13T12:29:27;100740.72;;;25.84;30.81
692;BME280;70475;50.084;8.576;2023-07-13T12:31:54;100733.53;;;26.03;30.70
692;BME280;70475;50.084;8.576;2023-07-13T12:34:24;100728.84;;;26.42;30.93
692;BME280;70475;50.084;8.576;2023-07-13T12:36:53;100732.97;;;26.73;30.82
692;BME280;70475;50.084;8.576;2023-07-13T12:39:25;100732.22;;;26.34;30.95
692;BME280;70475;50.084;8.576;2023-07-13T12:42:17;100741.66;;;26.13;31.59
692;BME280;70475;50.084;8.576;2023-07-13T12:44:45;100747.25;;;25.83;32.05
692;BME280;70475;50.084;8.576;2023-07-13T12:47:14;100751.03;;;25.92;32.91
692;BME280;70475;50.084;8.576;2023-07-13T12:49:48;100747.78;;;25.90;31.76
692;BME280;70475;50.084;8.576;2023-07-13T12:52:20;100749.00;;;25.64;32.56
692;BME280;70475;50.084;8.576;2023-07-13T12:54:57;100745.53;;;25.43;33.26
692;BME280;70475;50.084;8.576;2023-07-13T12:57:32;100751.78;;;25.49;32.60
692;BME280;70475;50.084;8.576;2023-07-13T13:00:21;100762.13;;;25.62;32.56
692;BME280;70475;50.084;8.576;2023-07-13T13:02:52;100751.75;;;25.59;32.56
692;BME280;70475;50.084;8.576;2023-07-13T13:05:25;100753.53;;;25.83;32.22
692;BME280;70475;50.084;8.576;2023-07-13T13:07:53;100757.31;;;25.87;32.77
692;BME280;70475;50.084;8.576;2023-07-13T13:10:22;100762.41;;;25.60;32.72
692;BME280;70475;50.084;8.576;2023-07-13T13:12:50;100757.78;;;25.46;33.60
692;BME280;70475;50.084;8.576;2023-07-13T13:15:18;100757.22;;;25.59;32.70
692;BME280;70475;50.084;8.576;2023-07-13T13:17:48;100764.31;;;25.60;32.13
692;BME280;70475;50.084;8.576;2023-07-13T13:20:18;100766.56;;;25.28;33.33
692;BME280;70475;50.084;8.576;2023-07-13T13:22:46;100770.41;;;25.37;33.40
692;BME280;70475;50.084;8.576;2023-07-13T13:25:15;100763.84;;;25.18;33.46